North Platte Regional Airport Lee Bird Field
KLBF : now visible

Airfield :











YOU CAN JOIN US ON...

 
LOGIN :

Register | Disclaimer

   EN    FR    IT 

 









Legend :    VFR   Marginal VFR   IFR   Intensive IFR   Very Intensive IFR
Visi :
Ceiling :
>= 8 km
>= 3000ft
5 to 8 km
1000 to 3000 ft
1500m to 5 km
500 to 1000 ft
800 to 1500m
200 to 500 ft
< 800m
< 200 ft
Symbols :   Thunderstorms  Fog  Heavy snow  Heavy precipitations  Wind > 20 kt






- Airport Elevation : 2777 ft
- IATA code : LBF


KLBF - North Platte Regional Lee Bird Field

CURRENT METAR :
  • 072053Z AUTO 24010KT 10SM CLR 13/01 A2986 RMK AO2 SLP120 T01330011 56029

EXPIRED METARs :
  • 071953Z AUTO 21008KT 10SM CLR 12/02 A2987 RMK AO2 SLP125 T01220022
  • 071853Z AUTO 21009KT 10SM CLR 11/02 A2991 RMK AO2 SLP141 T01060017

TAF KLBF
Valid from the 07 at 18:00 until the 08 at 18:00 UTC


071739Z 0718/0818 20007KT P6SM SCT250
FM080600 31004KT P6SM BKN250



MET'MAP, your aeronautical weather chart ! - Copyright ORBIFLY December 2007 - Disclaimer

ORBIFLY MET'MAP TEAM :

Programming & Development : Alexandra Zaïnal
Concept & original design : Baudouin d'Aumeries
Assistance for programming : Marc-Olivier Méhu
Technical & hardware support : Manuel Goepfert

Contact : metmap@orbifly.com




SOURCES & CREDITS :

   NOAA       Earth
Advisory